createdAt,value
2019-01-26T00:01:56.146Z,44.76
2019-01-26T00:04:23.339Z,44.82
2019-01-26T00:06:50.597Z,45.06
2019-01-26T00:09:17.763Z,45.06
2019-01-26T00:11:44.971Z,44.81
2019-01-26T00:14:12.165Z,44.73
2019-01-26T00:16:39.450Z,44.73
2019-01-26T00:19:06.639Z,44.72
2019-01-26T00:21:34.006Z,44.70
2019-01-26T00:24:01.203Z,44.70
2019-01-26T00:26:28.374Z,44.71
2019-01-26T00:28:55.598Z,44.82
2019-01-26T00:31:22.802Z,45.13
2019-01-26T00:33:50.018Z,45.13
2019-01-26T00:36:17.230Z,44.74
2019-01-26T00:38:44.465Z,44.56
2019-01-26T00:41:11.683Z,44.56
2019-01-26T00:43:38.895Z,44.64
2019-01-26T00:46:06.069Z,44.61
2019-01-26T00:48:33.266Z,44.55
2019-01-26T00:51:00.446Z,44.57
2019-01-26T00:53:27.662Z,44.62
2019-01-26T00:55:54.854Z,44.59
2019-01-26T00:58:23.646Z,44.59
2019-01-26T01:00:51.206Z,44.71
2019-01-26T01:03:18.387Z,44.71
2019-01-26T01:05:45.626Z,44.57
2019-01-26T01:08:12.802Z,44.62
2019-01-26T01:10:40.013Z,44.61
2019-01-26T01:13:07.220Z,44.63
2019-01-26T01:15:34.484Z,44.50
2019-01-26T01:18:01.664Z,44.54
2019-01-26T01:20:28.819Z,44.59
2019-01-26T01:22:55.991Z,44.50
2019-01-26T01:25:23.210Z,44.51
2019-01-26T01:27:50.419Z,44.54
2019-01-26T01:30:18.897Z,44.50
2019-01-26T01:32:46.210Z,44.48
2019-01-26T01:35:13.907Z,44.45
2019-01-26T01:37:41.087Z,44.45
2019-01-26T01:40:08.318Z,44.45
2019-01-26T01:42:35.525Z,44.42
2019-01-26T01:45:03.114Z,44.38
2019-01-26T01:47:30.275Z,44.36
2019-01-26T01:49:57.490Z,44.36
2019-01-26T01:52:24.713Z,44.30
2019-01-26T01:54:51.935Z,44.28
2019-01-26T01:57:19.122Z,44.35
2019-01-26T01:59:46.304Z,44.37
2019-01-26T02:02:13.501Z,44.34
2019-01-26T02:04:40.695Z,44.37
2019-01-26T02:07:07.960Z,44.37
2019-01-26T02:09:35.174Z,44.35
2019-01-26T02:12:02.367Z,44.36
2019-01-26T02:14:29.541Z,44.36
2019-01-26T02:16:56.771Z,44.37
2019-01-26T02:19:23.936Z,44.33
2019-01-26T02:21:51.254Z,44.33
2019-01-26T02:24:18.462Z,44.31
2019-01-26T02:26:45.670Z,44.29
2019-01-26T02:29:12.867Z,44.31
2019-01-26T02:31:40.090Z,44.26
2019-01-26T02:34:07.260Z,44.23
2019-01-26T02:36:34.488Z,44.30
2019-01-26T02:39:01.727Z,44.32
2019-01-26T02:41:28.945Z,44.23
2019-01-26T02:43:56.158Z,44.13
2019-01-26T02:46:23.334Z,43.79
2019-01-26T02:48:50.743Z,43.79
2019-01-26T02:51:17.903Z,44.19
2019-01-26T02:53:45.120Z,44.17
2019-01-26T02:56:12.348Z,44.15
2019-01-26T02:58:39.557Z,44.08
2019-01-26T03:01:06.787Z,44.08
2019-01-26T03:03:34.264Z,44.12
2019-01-26T03:06:01.598Z,44.13
2019-01-26T03:08:28.803Z,44.14
2019-01-26T03:10:56.108Z,44.14
2019-01-26T03:13:23.252Z,44.17
2019-01-26T03:15:50.494Z,44.09
2019-01-26T03:18:17.703Z,44.10
2019-01-26T03:20:44.947Z,44.10
2019-01-26T03:23:12.159Z,44.16
2019-01-26T03:25:39.368Z,44.16
2019-01-26T03:28:06.587Z,44.22
2019-01-26T03:30:33.772Z,44.22
2019-01-26T03:33:01.007Z,44.06
2019-01-26T03:35:28.254Z,44.09
2019-01-26T03:37:55.400Z,44.05
2019-01-26T03:40:22.668Z,44.08
2019-01-26T03:42:49.885Z,44.07
2019-01-26T03:45:17.123Z,44.07
2019-01-26T03:47:44.316Z,43.96
2019-01-26T03:50:11.861Z,43.94
2019-01-26T03:52:39.056Z,43.97
2019-01-26T03:55:07.449Z,44.04
2019-01-26T03:57:34.634Z,44.04
2019-01-26T04:00:01.872Z,43.95
2019-01-26T04:02:29.170Z,43.98
2019-01-26T04:04:56.407Z,44.02
2019-01-26T04:07:23.581Z,44.02
2019-01-26T04:09:50.797Z,44.04
2019-01-26T04:12:17.997Z,44.07
2019-01-26T04:14:45.225Z,43.88
2019-01-26T04:17:12.448Z,43.88
2019-01-26T04:19:39.778Z,44.07
2019-01-26T04:22:06.991Z,43.89
2019-01-26T04:24:34.186Z,43.89
2019-01-26T04:27:01.462Z,43.92
2019-01-26T04:29:28.657Z,43.92
2019-01-26T04:31:55.878Z,43.85
2019-01-26T04:34:23.076Z,43.84
2019-01-26T04:36:50.278Z,43.86
2019-01-26T04:39:17.549Z,43.81
2019-01-26T04:41:44.793Z,43.74
2019-01-26T04:44:11.997Z,43.85
2019-01-26T04:46:39.160Z,43.85
2019-01-26T04:49:06.390Z,43.52
2019-01-26T04:51:33.659Z,43.44
2019-01-26T04:54:00.924Z,43.37
2019-01-26T04:56:28.085Z,43.19
2019-01-26T04:58:55.336Z,43.08
2019-01-26T05:01:22.542Z,42.94
2019-01-26T05:03:49.723Z,42.86
2019-01-26T05:06:16.937Z,42.91
2019-01-26T05:08:44.246Z,42.82
2019-01-26T05:11:11.436Z,42.74
2019-01-26T05:13:38.639Z,42.69
2019-01-26T05:16:05.911Z,42.68
2019-01-26T05:18:33.128Z,42.66
2019-01-26T05:21:00.325Z,42.63
2019-01-26T05:23:27.562Z,42.64
2019-01-26T05:25:54.772Z,42.69
2019-01-26T05:28:21.951Z,42.66
2019-01-26T05:30:49.169Z,42.62
2019-01-26T05:33:16.358Z,42.65
2019-01-26T05:35:43.607Z,42.62
2019-01-26T05:38:10.802Z,42.60
2019-01-26T05:40:38.070Z,42.58
2019-01-26T05:43:05.295Z,42.64
2019-01-26T05:45:32.510Z,42.64
2019-01-26T05:47:59.719Z,42.63
2019-01-26T05:50:26.922Z,42.59
2019-01-26T05:52:54.200Z,42.65
2019-01-26T05:55:21.393Z,42.66
2019-01-26T05:57:48.631Z,42.66
2019-01-26T06:00:25.810Z,42.60
2019-01-26T06:02:53.026Z,42.58
2019-01-26T06:05:20.232Z,42.65
2019-01-26T06:07:47.407Z,42.69
2019-01-26T06:10:14.589Z,42.66
2019-01-26T06:12:41.803Z,42.59
2019-01-26T06:15:09.836Z,42.59
2019-01-26T06:17:37.072Z,42.57
2019-01-26T06:20:05.370Z,42.52
2019-01-26T06:22:32.575Z,42.52
2019-01-26T06:24:59.789Z,42.54
2019-01-26T06:27:26.959Z,42.50
2019-01-26T06:29:54.210Z,42.53
2019-01-26T06:32:21.390Z,42.50
2019-01-26T06:34:48.566Z,42.52
2019-01-26T06:37:15.778Z,42.49
2019-01-26T06:39:42.985Z,42.53
2019-01-26T06:42:10.169Z,42.64
2019-01-26T06:44:37.362Z,42.61
2019-01-26T06:47:04.729Z,42.55
2019-01-26T06:49:31.862Z,42.51
2019-01-26T06:51:59.044Z,42.56
2019-01-26T06:54:26.269Z,42.61
2019-01-26T06:56:53.453Z,42.58
2019-01-26T06:59:20.679Z,42.57
2019-01-26T07:01:47.886Z,42.51
2019-01-26T07:04:23.879Z,42.45
2019-01-26T07:07:09.695Z,42.45
2019-01-26T07:09:36.855Z,42.50
2019-01-26T07:12:04.098Z,42.49
2019-01-26T07:14:31.282Z,42.44
2019-01-26T07:16:58.750Z,42.41
2019-01-26T07:19:26.003Z,42.38
2019-01-26T07:21:53.241Z,42.39
2019-01-26T07:24:20.464Z,42.38
2019-01-26T07:26:47.803Z,42.46
2019-01-26T07:29:15.017Z,42.45
2019-01-26T07:31:42.227Z,42.43
2019-01-26T07:34:09.412Z,42.43
2019-01-26T07:36:36.594Z,42.40
2019-01-26T07:39:06.949Z,42.38
2019-01-26T07:41:34.121Z,42.46
2019-01-26T07:44:01.287Z,42.44
2019-01-26T07:46:28.482Z,42.38
2019-01-26T07:48:55.703Z,42.36
2019-01-26T07:51:22.881Z,42.30
2019-01-26T07:53:50.050Z,42.34
2019-01-26T07:56:17.279Z,42.38
2019-01-26T07:58:44.494Z,42.34
2019-01-26T08:01:11.667Z,42.35
2019-01-26T08:03:38.858Z,42.35
2019-01-26T08:06:06.029Z,42.33
2019-01-26T08:08:33.307Z,42.35
2019-01-26T08:11:00.465Z,42.30
2019-01-26T08:13:27.718Z,42.32
2019-01-26T08:15:54.954Z,42.33
2019-01-26T08:18:24.256Z,42.37
2019-01-26T08:20:51.286Z,42.35
2019-01-26T08:23:18.523Z,42.32
2019-01-26T08:25:45.705Z,42.26
2019-01-26T08:28:12.870Z,42.26
2019-01-26T08:30:40.088Z,42.29
2019-01-26T08:33:07.265Z,42.24
2019-01-26T08:35:34.472Z,42.30
2019-01-26T08:38:01.650Z,42.28
2019-01-26T08:40:28.851Z,42.18
2019-01-26T08:42:56.034Z,42.15
2019-01-26T08:45:23.207Z,42.17
2019-01-26T08:47:50.468Z,42.17
2019-01-26T08:50:22.336Z,42.17
2019-01-26T08:52:49.528Z,42.10
2019-01-26T08:55:18.240Z,42.10
2019-01-26T08:57:45.736Z,42.08
2019-01-26T09:00:20.869Z,42.06
2019-01-26T09:03:08.026Z,42.03
2019-01-26T09:05:42.686Z,42.01
2019-01-26T09:08:09.903Z,42.00
2019-01-26T09:10:37.090Z,41.96
2019-01-26T09:13:04.321Z,41.96
2019-01-26T09:15:31.555Z,41.97
2019-01-26T09:17:58.711Z,42.02
2019-01-26T09:20:25.938Z,42.03
2019-01-26T09:22:53.123Z,42.00
2019-01-26T09:25:20.354Z,41.96
2019-01-26T09:27:47.731Z,41.94
2019-01-26T09:30:15.118Z,41.95
2019-01-26T09:32:42.303Z,41.95
2019-01-26T09:35:09.530Z,41.91
2019-01-26T09:37:36.697Z,41.87
2019-01-26T09:40:05.059Z,41.84
2019-01-26T09:42:32.251Z,41.83
2019-01-26T09:44:59.535Z,41.83
2019-01-26T09:47:27.239Z,41.82
2019-01-26T09:49:54.423Z,41.80
2019-01-26T09:52:21.632Z,41.75
2019-01-26T09:54:48.835Z,41.78
2019-01-26T09:57:16.044Z,41.78
2019-01-26T09:59:43.231Z,41.80
2019-01-26T10:02:10.446Z,41.76
2019-01-26T10:04:37.594Z,41.75
2019-01-26T10:07:04.867Z,41.69
2019-01-26T10:09:32.026Z,41.65
2019-01-26T10:11:59.266Z,41.63
2019-01-26T10:14:26.482Z,41.66
2019-01-26T10:16:53.694Z,41.62
2019-01-26T10:19:20.928Z,41.61
2019-01-26T10:21:48.095Z,41.58
2019-01-26T10:24:15.325Z,41.57
2019-01-26T10:26:42.506Z,41.63
2019-01-26T10:29:09.666Z,41.66
2019-01-26T10:31:36.869Z,41.67
2019-01-26T10:34:04.129Z,41.65
2019-01-26T10:36:51.020Z,41.64
2019-01-26T10:39:18.689Z,41.63
2019-01-26T10:42:05.500Z,41.61
2019-01-26T10:44:33.772Z,41.58
2019-01-26T10:47:00.965Z,41.55
2019-01-26T10:49:28.238Z,41.56
2019-01-26T10:51:55.584Z,41.54
2019-01-26T10:54:22.773Z,41.51
2019-01-26T10:56:49.935Z,41.50
2019-01-26T10:59:17.313Z,41.50
2019-01-26T11:01:44.492Z,41.51
2019-01-26T11:04:11.701Z,41.47
2019-01-26T11:06:38.878Z,41.43
2019-01-26T11:09:09.247Z,41.41
2019-01-26T11:11:36.402Z,41.35
2019-01-26T11:14:03.603Z,41.38
2019-01-26T11:16:30.873Z,41.39
2019-01-26T11:18:58.064Z,41.38
2019-01-26T11:21:25.457Z,41.43
2019-01-26T11:23:52.673Z,41.47
2019-01-26T11:26:19.843Z,41.41
2019-01-26T11:28:47.099Z,41.38
2019-01-26T11:31:14.398Z,41.32
2019-01-26T11:33:41.609Z,41.29
2019-01-26T11:36:08.843Z,41.25
2019-01-26T11:38:36.063Z,41.25
2019-01-26T11:41:03.292Z,41.26
2019-01-26T11:43:30.500Z,41.26
2019-01-26T11:46:09.429Z,41.26
2019-01-26T11:48:40.127Z,41.25
2019-01-26T11:51:30.770Z,41.25
2019-01-26T11:53:57.946Z,41.26
2019-01-26T11:56:44.705Z,41.23
2019-01-26T11:59:12.034Z,41.23
2019-01-26T12:01:50.054Z,41.22
2019-01-26T12:04:35.645Z,41.23
2019-01-26T12:07:24.339Z,41.32
2019-01-26T12:09:51.531Z,41.33
2019-01-26T12:12:18.745Z,41.34
2019-01-26T12:14:45.958Z,41.37
2019-01-26T12:17:13.178Z,41.31
2019-01-26T12:19:40.433Z,41.35
2019-01-26T12:22:07.605Z,41.40
2019-01-26T12:24:34.763Z,41.41
2019-01-26T12:27:01.954Z,41.43
2019-01-26T12:29:29.157Z,41.50
2019-01-26T12:31:56.346Z,41.52
2019-01-26T12:34:23.519Z,41.51
2019-01-26T12:36:50.771Z,41.49
2019-01-26T12:39:17.971Z,41.56
2019-01-26T12:41:45.170Z,41.56
2019-01-26T12:44:12.298Z,41.49
2019-01-26T12:46:39.557Z,41.51
2019-01-26T12:49:06.714Z,41.51
2019-01-26T12:51:33.974Z,41.56
2019-01-26T12:54:01.166Z,41.47
2019-01-26T12:56:28.400Z,41.49
2019-01-26T12:58:55.560Z,41.45
2019-01-26T13:01:22.754Z,41.39
2019-01-26T13:03:49.923Z,41.36
2019-01-26T13:06:17.179Z,41.32
2019-01-26T13:08:44.388Z,41.33
2019-01-26T13:11:22.804Z,41.32
2019-01-26T13:13:50.043Z,41.33
2019-01-26T13:16:17.272Z,41.33
2019-01-26T13:18:44.490Z,41.32
2019-01-26T13:21:11.701Z,41.32
2019-01-26T13:23:38.875Z,41.29
2019-01-26T13:26:06.053Z,41.29
2019-01-26T13:28:33.287Z,41.31
2019-01-26T13:31:00.478Z,41.24
2019-01-26T13:33:27.681Z,41.31
2019-01-26T13:35:54.873Z,41.33
2019-01-26T13:38:22.103Z,41.36
2019-01-26T13:40:49.326Z,41.33
2019-01-26T13:43:17.433Z,41.34
2019-01-26T13:45:44.641Z,41.37
2019-01-26T13:48:11.828Z,41.36
2019-01-26T13:50:39.068Z,41.36
2019-01-26T13:53:06.267Z,41.40
2019-01-26T13:55:33.439Z,41.44
2019-01-26T13:58:00.702Z,41.49
2019-01-26T14:00:29.027Z,41.46
2019-01-26T14:02:56.194Z,41.45
2019-01-26T14:05:23.406Z,41.44
2019-01-26T14:07:50.570Z,41.45
2019-01-26T14:10:18.115Z,41.46
2019-01-26T14:12:45.347Z,41.42
2019-01-26T14:15:13.278Z,41.45
2019-01-26T14:17:40.483Z,41.44
2019-01-26T14:20:10.896Z,41.44
2019-01-26T14:22:38.101Z,41.50
2019-01-26T14:25:06.917Z,41.50
2019-01-26T14:27:34.556Z,41.48
2019-01-26T14:30:01.747Z,41.50
2019-01-26T14:32:28.925Z,41.49
2019-01-26T14:34:56.139Z,41.45
2019-01-26T14:37:23.323Z,41.47
2019-01-26T14:39:50.699Z,41.48
2019-01-26T14:42:17.865Z,41.48
2019-01-26T14:44:45.045Z,41.48
2019-01-26T14:47:12.349Z,41.50
2019-01-26T14:49:39.573Z,41.52
2019-01-26T14:52:06.803Z,41.58
2019-01-26T14:54:34.047Z,41.53
2019-01-26T14:57:01.242Z,41.52
2019-01-26T14:59:28.597Z,41.56
2019-01-26T15:01:55.795Z,41.58
2019-01-26T15:04:22.979Z,41.57
2019-01-26T15:06:50.236Z,41.55
2019-01-26T15:09:17.425Z,41.52
2019-01-26T15:11:44.652Z,41.55
2019-01-26T15:14:11.867Z,41.52
2019-01-26T15:16:39.021Z,41.51
2019-01-26T15:19:06.337Z,41.49
2019-01-26T15:21:33.511Z,41.51
2019-01-26T15:24:00.798Z,41.53
2019-01-26T15:26:27.998Z,41.50
2019-01-26T15:28:55.225Z,41.49
2019-01-26T15:31:22.458Z,41.49
2019-01-26T15:33:49.681Z,41.55
2019-01-26T15:36:16.921Z,41.58
2019-01-26T15:38:44.100Z,41.57
2019-01-26T15:41:11.537Z,41.61
2019-01-26T15:43:38.691Z,41.59
2019-01-26T15:46:05.853Z,41.60
2019-01-26T15:48:33.040Z,41.58
2019-01-26T15:51:00.225Z,41.59
2019-01-26T15:53:27.469Z,41.56
2019-01-26T15:55:54.678Z,41.59
2019-01-26T15:58:21.874Z,41.57
2019-01-26T16:00:49.094Z,41.61
2019-01-26T16:03:16.272Z,41.62
2019-01-26T16:05:43.490Z,41.62
2019-01-26T16:08:10.725Z,41.60
2019-01-26T16:10:37.866Z,41.58
2019-01-26T16:13:05.190Z,41.58
2019-01-26T16:15:32.408Z,41.63
2019-01-26T16:17:59.759Z,41.62
2019-01-26T16:20:26.970Z,41.62
2019-01-26T16:22:54.186Z,41.66
2019-01-26T16:25:21.427Z,41.66
2019-01-26T16:27:48.618Z,41.65
2019-01-26T16:30:24.030Z,41.64
2019-01-26T16:32:51.198Z,41.61
2019-01-26T16:35:18.424Z,41.58
2019-01-26T16:37:45.670Z,41.57
2019-01-26T16:40:15.596Z,41.62
2019-01-26T16:42:42.868Z,41.63
2019-01-26T16:45:13.382Z,41.62
2019-01-26T16:47:40.572Z,41.68
2019-01-26T16:50:11.463Z,41.68
2019-01-26T16:52:38.668Z,41.68
2019-01-26T16:55:07.088Z,41.73
2019-01-26T16:57:34.339Z,41.71
2019-01-26T17:00:01.539Z,41.70
2019-01-26T17:02:28.711Z,41.69
2019-01-26T17:04:55.948Z,41.68
2019-01-26T17:07:23.110Z,41.69
2019-01-26T17:09:50.438Z,41.70
2019-01-26T17:12:17.601Z,41.68
2019-01-26T17:14:44.752Z,41.67
2019-01-26T17:17:12.028Z,41.68
2019-01-26T17:19:39.274Z,41.68
2019-01-26T17:22:06.447Z,41.70
2019-01-26T17:24:33.643Z,41.75
2019-01-26T17:27:00.867Z,41.76
2019-01-26T17:29:28.160Z,41.75
2019-01-26T17:31:55.348Z,41.74
2019-01-26T17:34:23.238Z,41.79
2019-01-26T17:36:50.653Z,41.77
2019-01-26T17:39:17.978Z,41.78
2019-01-26T17:41:45.176Z,41.76
2019-01-26T17:44:12.430Z,41.82
2019-01-26T17:46:39.618Z,41.79
2019-01-26T17:49:06.836Z,41.81
2019-01-26T17:51:34.010Z,41.82
2019-01-26T17:54:01.202Z,41.79
2019-01-26T17:56:28.425Z,41.80
2019-01-26T17:58:55.681Z,41.84
2019-01-26T18:01:22.867Z,41.83
2019-01-26T18:03:50.084Z,41.79
2019-01-26T18:06:17.305Z,41.80
2019-01-26T18:08:44.490Z,41.85
2019-01-26T18:11:11.729Z,41.86
2019-01-26T18:13:38.925Z,41.92
2019-01-26T18:16:06.117Z,41.89
2019-01-26T18:18:33.410Z,41.83
2019-01-26T18:21:00.631Z,41.78
2019-01-26T18:23:29.804Z,41.80
2019-01-26T18:25:57.141Z,41.83
2019-01-26T18:28:24.340Z,41.81
2019-01-26T18:30:51.529Z,41.81
2019-01-26T18:33:18.791Z,41.81
2019-01-26T18:35:45.965Z,41.86
2019-01-26T18:38:13.173Z,41.87
2019-01-26T18:40:40.457Z,41.81
2019-01-26T18:43:07.678Z,41.78
2019-01-26T18:45:34.831Z,41.82
2019-01-26T18:48:02.052Z,41.83
2019-01-26T18:50:31.206Z,41.82
2019-01-26T18:52:58.566Z,41.81
2019-01-26T18:55:25.748Z,41.80
2019-01-26T18:57:52.918Z,41.87
2019-01-26T19:00:35.035Z,41.87
2019-01-26T19:03:22.731Z,41.85
2019-01-26T19:05:51.580Z,41.86
2019-01-26T19:08:18.785Z,41.86
2019-01-26T19:10:45.994Z,41.85
2019-01-26T19:13:13.146Z,41.80
2019-01-26T19:15:40.416Z,41.77
2019-01-26T19:18:07.624Z,41.80
2019-01-26T19:20:34.822Z,41.80
2019-01-26T19:23:02.046Z,41.80
2019-01-26T19:25:29.275Z,41.81
2019-01-26T19:27:56.458Z,41.86
2019-01-26T19:30:23.717Z,41.81
2019-01-26T19:32:50.903Z,41.86
2019-01-26T19:35:18.086Z,41.87
2019-01-26T19:37:45.346Z,41.88
2019-01-26T19:40:15.134Z,41.92
2019-01-26T19:42:42.328Z,41.92
2019-01-26T19:45:11.641Z,41.94
2019-01-26T19:47:39.018Z,41.96
2019-01-26T19:50:07.838Z,41.96
2019-01-26T19:52:35.059Z,41.93
2019-01-26T19:55:02.402Z,41.91
2019-01-26T19:57:29.582Z,41.93
2019-01-26T19:59:56.710Z,41.93
2019-01-26T20:02:23.926Z,41.89
2019-01-26T20:04:51.171Z,41.90
2019-01-26T20:07:18.378Z,41.91
2019-01-26T20:09:45.583Z,41.90
2019-01-26T20:12:12.932Z,41.97
2019-01-26T20:14:40.112Z,41.95
2019-01-26T20:17:07.384Z,41.99
2019-01-26T20:19:34.729Z,41.96
2019-01-26T20:22:01.945Z,41.99
2019-01-26T20:24:29.351Z,42.01
2019-01-26T20:26:56.510Z,42.10
2019-01-26T20:29:23.708Z,42.13
2019-01-26T20:31:50.910Z,42.11
2019-01-26T20:34:18.140Z,42.15
2019-01-26T20:36:45.333Z,42.22
2019-01-26T20:39:12.764Z,42.30
2019-01-26T20:41:39.943Z,42.32
2019-01-26T20:44:07.191Z,42.48
2019-01-26T20:46:34.477Z,42.51
2019-01-26T20:49:01.657Z,42.47
2019-01-26T20:51:28.857Z,42.59
2019-01-26T20:53:56.089Z,42.62
2019-01-26T20:56:23.268Z,42.66
2019-01-26T20:58:50.504Z,42.66
2019-01-26T21:01:17.819Z,42.63
2019-01-26T21:03:45.005Z,42.65
2019-01-26T21:06:12.182Z,42.74
2019-01-26T21:08:39.397Z,42.74
2019-01-26T21:11:06.675Z,42.72
2019-01-26T21:13:33.903Z,42.79
2019-01-26T21:16:01.122Z,42.79
2019-01-26T21:18:28.299Z,42.86
2019-01-26T21:20:55.641Z,42.82
2019-01-26T21:23:22.849Z,42.87
2019-01-26T21:25:50.184Z,42.92
2019-01-26T21:28:17.383Z,42.83
2019-01-26T21:30:44.574Z,42.81
2019-01-26T21:33:11.818Z,42.87
2019-01-26T21:35:39.008Z,42.88
2019-01-26T21:38:06.198Z,42.90
2019-01-26T21:40:33.470Z,42.91
2019-01-26T21:43:01.005Z,42.90
2019-01-26T21:45:28.209Z,42.89
2019-01-26T21:47:55.400Z,42.92
2019-01-26T21:50:24.835Z,42.91
2019-01-26T21:52:52.016Z,42.90
2019-01-26T21:55:19.215Z,42.91
2019-01-26T21:57:46.426Z,42.87
2019-01-26T22:00:16.287Z,42.92
2019-01-26T22:02:43.468Z,42.93
2019-01-26T22:05:10.863Z,42.94
2019-01-26T22:07:38.063Z,42.92
2019-01-26T22:10:06.756Z,42.92
2019-01-26T22:12:34.044Z,42.86
2019-01-26T22:15:01.259Z,42.87
2019-01-26T22:17:28.422Z,42.88
2019-01-26T22:19:55.655Z,42.92
2019-01-26T22:22:22.826Z,42.88
2019-01-26T22:24:49.991Z,42.92
2019-01-26T22:27:17.534Z,42.91
2019-01-26T22:29:44.743Z,42.83
2019-01-26T22:32:11.989Z,42.87
2019-01-26T22:34:39.177Z,42.84
2019-01-26T22:37:06.381Z,42.87
2019-01-26T22:39:33.599Z,42.87
2019-01-26T22:42:00.809Z,42.88
2019-01-26T22:44:28.059Z,42.90
2019-01-26T22:46:55.281Z,42.96
2019-01-26T22:49:22.499Z,42.95
2019-01-26T22:51:53.425Z,42.94
2019-01-26T22:54:18.961Z,42.93
2019-01-26T22:56:46.162Z,42.95
2019-01-26T22:59:13.345Z,42.91
2019-01-26T23:01:41.570Z,42.92
2019-01-26T23:04:53.476Z,42.93
2019-01-26T23:07:45.882Z,42.96
2019-01-26T23:10:59.763Z,43.00
2019-01-26T23:13:58.140Z,42.93
2019-01-26T23:17:00.195Z,42.96
2019-01-26T23:19:50.581Z,42.91
2019-01-26T23:22:44.295Z,42.92
2019-01-26T23:25:56.413Z,42.91
2019-01-26T23:29:08.165Z,42.99
2019-01-26T23:31:35.394Z,42.96
2019-01-26T23:34:02.561Z,42.96
2019-01-26T23:36:29.780Z,42.97
2019-01-26T23:39:02.112Z,43.00
2019-01-26T23:41:26.141Z,42.93
2019-01-26T23:43:53.398Z,42.92
2019-01-26T23:46:20.641Z,42.94
2019-01-26T23:48:47.808Z,42.92
2019-01-26T23:51:15.053Z,42.90
2019-01-26T23:53:42.195Z,42.91
2019-01-26T23:56:09.461Z,42.87
2019-01-26T23:58:36.643Z,42.89
